TimeCDT,TemperatureF,Dew PointF,Humidity,Sea Level PressureIn,VisibilityMPH,Wind Direction,Wind SpeedMPH,Gust SpeedMPH,PrecipitationIn,Events,Conditions,WindDirDegrees,DateUTC
12:53 AM,19.9,9.0,62,30.39,10.0,NNE,3.5,-,N/A,,Partly Cloudy,20,2014-03-24 05:53:00
1:53 AM,19.9,12.0,71,30.39,10.0,Calm,Calm,-,N/A,,Overcast,0,2014-03-24 06:53:00
2:53 AM,19.9,12.0,71,30.37,10.0,Calm,Calm,-,N/A,,Overcast,0,2014-03-24 07:53:00
3:53 AM,19.0,10.9,71,30.34,10.0,SSW,4.6,-,N/A,,Partly Cloudy,200,2014-03-24 08:53:00
4:53 AM,18.0,10.9,74,30.32,10.0,South,3.5,-,N/A,,Clear,170,2014-03-24 09:53:00
5:53 AM,17.1,10.9,77,30.32,10.0,Calm,Calm,-,N/A,,Scattered Clouds,0,2014-03-24 10:53:00
6:53 AM,18.0,12.9,81,30.32,10.0,ENE,3.5,-,N/A,,Overcast,70,2014-03-24 11:53:00
7:42 AM,19.4,12.2,74,30.27,4.0,Calm,Calm,-,0.00,Snow,Light Snow,0,2014-03-24 12:42:00
7:45 AM,19.4,14.0,80,30.27,10.0,Calm,Calm,-,0.00,Snow-Tornado,Funnel Cloud,0,2014-03-24 12:45:00
7:47 AM,19.4,14.0,80,30.27,10.0,Calm,Calm,-,0.00,Snow,Light Snow,0,2014-03-24 12:47:00
7:53 AM,19.9,14.0,78,30.32,10.0,Calm,Calm,-,0.00,Snow,Light Snow,0,2014-03-24 12:53:00
8:02 AM,19.4,14.0,80,30.27,2.0,Calm,Calm,-,0.00,Snow,Light Snow,0,2014-03-24 13:02:00
8:07 AM,19.4,15.8,86,30.27,1.0,Calm,Calm,-,0.00,Snow,Light Snow,0,2014-03-24 13:07:00
8:13 AM,19.4,15.8,86,30.27,0.8,Calm,Calm,-,0.00,Snow,Light Snow,0,2014-03-24 13:13:00
8:20 AM,19.4,15.8,86,30.26,1.2,Calm,Calm,-,0.00,Snow,Light Snow,0,2014-03-24 13:20:00
8:21 AM,19.4,15.8,86,30.26,1.2,Calm,Calm,-,0.00,Snow-Tornado,Funnel Cloud,0,2014-03-24 13:21:00
8:22 AM,19.4,15.8,86,30.26,1.2,Calm,Calm,-,0.00,Snow,Light Snow,0,2014-03-24 13:22:00
8:24 AM,19.4,15.8,86,30.26,1.5,Calm,Calm,-,0.00,Snow,Light Snow,0,2014-03-24 13:24:00
8:53 AM,21.0,17.1,85,30.30,0.8,ENE,3.5,-,0.00,Snow,Light Snow,70,2014-03-24 13:53:00
9:01 AM,21.2,17.6,86,30.25,1.0,Calm,Calm,-,0.00,Snow,Light Snow,0,2014-03-24 14:01:00
9:31 AM,23.0,19.4,86,30.25,2.0,Calm,Calm,-,0.00,Snow,Light Snow,0,2014-03-24 14:31:00
9:33 AM,23.0,19.4,86,30.25,1.8,Calm,Calm,-,0.00,Snow,Light Snow,0,2014-03-24 14:33:00
9:41 AM,23.0,19.4,86,30.24,2.0,Calm,Calm,-,0.00,Snow,Light Snow,0,2014-03-24 14:41:00
9:51 AM,24.8,19.4,80,30.24,4.0,SSW,3.5,-,0.00,,Overcast,200,2014-03-24 14:51:00
9:53 AM,24.1,19.9,84,30.29,4.0,Calm,Calm,-,0.00,,Overcast,0,2014-03-24 14:53:00
10:49 AM,26.6,21.2,80,30.23,7.0,WSW,5.8,-,N/A,,Overcast,250,2014-03-24 15:49:00
10:53 AM,27.0,21.0,78,30.27,7.0,SW,5.8,-,N/A,,Overcast,230,2014-03-24 15:53:00
11:26 AM,28.4,21.2,74,30.21,1.8,SW,6.9,-,0.00,Snow,Light Snow,230,2014-03-24 16:26:00
11:53 AM,30.0,25.0,82,30.24,1.2,SW,9.2,-,0.00,Snow,Light Snow,230,2014-03-24 16:53:00
12:23 PM,30.2,24.8,80,30.19,2.0,WSW,9.2,-,0.00,Snow,Light Snow,240,2014-03-24 17:23:00
12:27 PM,30.2,24.8,80,30.19,1.2,WSW,11.5,-,0.00,Snow,Light Snow,250,2014-03-24 17:27:00
12:34 PM,30.2,24.8,80,30.18,1.2,West,9.2,17.3,0.00,Snow,Light Snow,260,2014-03-24 17:34:00
12:40 PM,28.4,24.8,86,30.19,0.5,West,15.0,20.7,0.00,Fog-Snow,Snow,280,2014-03-24 17:40:00
12:53 PM,28.9,25.0,85,30.22,1.0,NW,12.7,-,0.00,Snow,Light Snow,320,2014-03-24 17:53:00
1:02 PM,30.2,24.8,80,30.18,2.0,WNW,8.1,-,0.00,Snow,Light Snow,300,2014-03-24 18:02:00
1:11 PM,30.2,23.0,75,30.17,3.0,NW,12.7,19.6,0.00,Snow,Light Snow,310,2014-03-24 18:11:00
1:32 PM,30.2,21.2,69,30.17,10.0,WNW,18.4,24.2,0.00,,Overcast,300,2014-03-24 18:32:00
1:53 PM,28.9,19.9,69,30.20,10.0,NW,15.0,-,0.00,,Overcast,320,2014-03-24 18:53:00
2:53 PM,32.0,16.0,52,30.18,10.0,WNW,13.8,25.3,N/A,,Scattered Clouds,290,2014-03-24 19:53:00
3:53 PM,30.9,16.0,54,30.15,10.0,WNW,12.7,23.0,N/A,,Mostly Cloudy,300,2014-03-24 20:53:00
4:53 PM,30.0,17.1,59,30.15,3.0,WNW,18.4,25.3,0.00,,Haze,300,2014-03-24 21:53:00
5:53 PM,30.0,9.0,41,30.15,10.0,WNW,24.2,32.2,0.00,,Scattered Clouds,300,2014-03-24 22:53:00
6:53 PM,27.0,6.1,41,30.16,10.0,NW,17.3,21.9,N/A,,Clear,320,2014-03-24 23:53:00
7:53 PM,26.1,9.0,49,30.16,10.0,WNW,9.2,-,N/A,,Clear,300,2014-03-25 00:53:00
8:53 PM,23.0,10.0,58,30.16,10.0,West,4.6,-,N/A,,Clear,270,2014-03-25 01:53:00
9:53 PM,23.0,10.9,60,30.14,10.0,West,4.6,-,N/A,,Clear,260,2014-03-25 02:53:00
10:53 PM,23.0,12.0,63,30.14,10.0,WNW,9.2,-,N/A,,Mostly Cloudy,290,2014-03-25 03:53:00
11:14 PM,23.0,17.6,80,30.10,2.5,WNW,12.7,20.7,0.00,Snow,Light Snow,290,2014-03-25 04:14:00
11:22 PM,23.0,17.6,80,30.10,9.0,WNW,9.2,-,0.00,,Overcast,300,2014-03-25 04:22:00
11:53 PM,23.0,17.1,78,30.14,10.0,WNW,8.1,-,0.00,,Partly Cloudy,290,2014-03-25 04:53:00